createdAt,value
2023-05-18T00:00:00.680Z,97664.14
2023-05-18T00:02:31.644Z,97661.00
2023-05-18T00:05:04.919Z,97659.77
2023-05-18T00:07:37.694Z,97654.64
2023-05-18T00:10:09.971Z,97652.60
2023-05-18T00:12:41.952Z,97650.06
2023-05-18T00:15:17.849Z,97655.00
2023-05-18T00:17:46.546Z,97656.79
2023-05-18T00:20:18.836Z,97656.75
2023-05-18T00:22:51.010Z,97655.41
2023-05-18T00:25:19.671Z,97650.09
2023-05-18T00:27:52.209Z,97645.68
2023-05-18T00:30:22.100Z,97644.92
2023-05-18T00:32:51.093Z,97642.61
2023-05-18T00:35:19.711Z,97644.67
2023-05-18T00:37:48.291Z,97646.77
2023-05-18T00:40:17.284Z,97649.55
2023-05-18T00:42:45.747Z,97647.10
2023-05-18T00:45:14.277Z,97647.86
2023-05-18T00:47:42.858Z,97652.17
2023-05-18T00:50:12.743Z,97653.04
2023-05-18T00:52:43.307Z,97652.17
2023-05-18T00:55:14.602Z,97650.66
2023-05-18T00:57:45.812Z,97651.45
2023-05-18T01:00:15.745Z,97649.20
2023-05-18T01:02:45.940Z,97648.80
2023-05-18T01:05:17.724Z,97647.48
2023-05-18T01:07:46.916Z,97652.66
2023-05-18T01:10:19.284Z,97655.29
2023-05-18T01:12:59.898Z,97656.45
2023-05-18T01:15:37.463Z,97656.11
2023-05-18T01:18:32.013Z,97654.95
2023-05-18T01:21:43.416Z,97657.19
2023-05-18T01:24:31.459Z,97659.69
2023-05-18T01:27:01.267Z,97658.82
2023-05-18T01:29:31.338Z,97659.30
2023-05-18T01:31:59.878Z,97664.02
2023-05-18T01:34:30.754Z,97663.30
2023-05-18T01:37:01.021Z,97664.75
2023-05-18T01:39:30.330Z,97667.11
2023-05-18T01:42:08.712Z,97667.80
2023-05-18T01:44:44.325Z,97670.63
2023-05-18T01:47:15.894Z,97672.52
2023-05-18T01:50:05.474Z,97677.88
2023-05-18T01:52:40.151Z,97679.89
2023-05-18T01:55:10.956Z,97680.42
2023-05-18T01:57:43.332Z,97674.92
2023-05-18T02:00:13.189Z,97674.80
2023-05-18T02:02:45.385Z,97673.92
2023-05-18T02:05:17.931Z,97672.40
2023-05-18T02:07:54.257Z,97674.30
2023-05-18T02:10:22.902Z,97678.33
2023-05-18T02:12:53.110Z,97678.49
2023-05-18T02:15:22.428Z,97678.79
2023-05-18T02:17:51.317Z,97675.92
2023-05-18T02:20:19.932Z,97676.79
2023-05-18T02:22:48.381Z,97673.02
2023-05-18T02:25:17.377Z,97678.93
2023-05-18T02:27:45.954Z,97683.19
2023-05-18T02:30:16.361Z,97685.16
2023-05-18T02:32:47.289Z,97688.55
2023-05-18T02:35:18.514Z,97688.23
2023-05-18T02:37:47.769Z,97685.92
2023-05-18T02:40:17.215Z,97688.83
2023-05-18T02:42:48.065Z,97690.83
2023-05-18T02:45:17.260Z,97693.45
2023-05-18T02:47:46.225Z,97693.30
2023-05-18T02:50:17.752Z,97692.64
2023-05-18T02:52:49.408Z,97695.93
2023-05-18T02:55:19.237Z,97698.08
2023-05-18T02:57:57.298Z,97704.77
2023-05-18T03:00:37.024Z,97707.48
2023-05-18T03:03:16.369Z,97704.65
2023-05-18T03:05:46.744Z,97708.74
2023-05-18T03:08:15.305Z,97708.89
2023-05-18T03:10:43.837Z,97709.11
2023-05-18T03:13:12.466Z,97705.50
2023-05-18T03:15:41.221Z,97707.41
2023-05-18T03:18:10.090Z,97710.38
2023-05-18T03:20:38.911Z,97712.70
2023-05-18T03:23:08.021Z,97713.61
2023-05-18T03:25:37.610Z,97715.26
2023-05-18T03:28:07.246Z,97718.84
2023-05-18T03:30:38.680Z,97716.65
2023-05-18T03:33:07.401Z,97716.33
2023-05-18T03:35:36.065Z,97722.19
2023-05-18T03:38:05.015Z,97727.49
2023-05-18T03:40:37.064Z,97728.04
2023-05-18T03:43:06.068Z,97731.34
2023-05-18T03:45:35.005Z,97730.70
2023-05-18T03:48:03.720Z,97734.83
2023-05-18T03:50:37.419Z,97737.20
2023-05-18T03:53:06.694Z,97740.27
2023-05-18T03:55:35.321Z,97742.20
2023-05-18T03:58:03.973Z,97741.98
2023-05-18T04:00:33.243Z,97746.33
2023-05-18T04:03:03.728Z,97745.55
2023-05-18T04:05:33.566Z,97747.38
2023-05-18T04:08:02.275Z,97753.05
2023-05-18T04:10:32.748Z,97753.78
2023-05-18T04:13:02.308Z,97753.79
2023-05-18T04:15:38.627Z,97758.73
2023-05-18T04:18:08.654Z,97766.59
2023-05-18T04:20:40.510Z,97771.52
2023-05-18T04:23:10.450Z,97770.83
2023-05-18T04:25:41.947Z,97778.13
2023-05-18T04:28:12.612Z,97780.88
2023-05-18T04:30:42.515Z,97781.61
2023-05-18T04:33:13.085Z,97781.00
2023-05-18T04:35:41.835Z,97785.36
2023-05-18T04:38:11.006Z,97786.64
2023-05-18T04:40:43.007Z,97784.89
2023-05-18T04:43:17.740Z,97784.83
2023-05-18T04:45:50.933Z,97788.39
2023-05-18T04:48:21.078Z,97796.36
2023-05-18T04:50:54.603Z,97794.66
2023-05-18T04:53:23.220Z,97798.13
2023-05-18T04:55:56.911Z,97803.66
2023-05-18T04:58:25.798Z,97810.34
2023-05-18T05:00:54.788Z,97807.71
2023-05-18T05:03:23.460Z,97807.83
2023-05-18T05:05:52.849Z,97811.36
2023-05-18T05:08:24.249Z,97808.91
2023-05-18T05:10:52.787Z,97810.56
2023-05-18T05:13:24.435Z,97807.77
2023-05-18T05:15:53.096Z,97815.73
2023-05-18T05:18:21.777Z,97817.25
2023-05-18T05:20:53.086Z,97813.61
2023-05-18T05:23:21.716Z,97815.05
2023-05-18T05:25:50.609Z,97814.86
2023-05-18T05:28:19.263Z,97810.78
2023-05-18T05:30:51.785Z,97811.63
2023-05-18T05:33:23.280Z,97818.35
2023-05-18T05:36:22.477Z,97817.52
2023-05-18T05:38:56.822Z,97823.21
2023-05-18T05:41:26.469Z,97822.92
2023-05-18T05:43:59.145Z,97823.63
2023-05-18T05:46:29.408Z,97828.89
2023-05-18T05:49:01.196Z,97836.21
2023-05-18T05:51:30.896Z,97838.63
2023-05-18T05:54:05.508Z,97838.42
2023-05-18T05:56:37.329Z,97838.64
2023-05-18T05:59:09.405Z,97844.08
2023-05-18T06:01:39.174Z,97843.13
2023-05-18T06:04:11.106Z,97841.96
2023-05-18T06:06:42.296Z,97841.98
2023-05-18T06:09:12.000Z,97841.95
2023-05-18T06:11:42.059Z,97848.08
2023-05-18T06:14:11.312Z,97851.73
2023-05-18T06:16:40.781Z,97852.71
2023-05-18T06:19:10.784Z,97854.77
2023-05-18T06:21:41.720Z,97852.89
2023-05-18T06:24:14.349Z,97857.39
2023-05-18T06:27:10.127Z,97865.14
2023-05-18T06:29:49.534Z,97869.20
2023-05-18T06:32:38.332Z,97875.80
2023-05-18T06:35:08.526Z,97877.05
2023-05-18T06:37:39.835Z,97879.17
2023-05-18T06:40:10.789Z,97879.11
2023-05-18T06:42:39.426Z,97886.05
2023-05-18T06:45:33.139Z,97892.30
2023-05-18T06:48:15.854Z,97893.94
2023-05-18T06:50:45.821Z,97895.34
2023-05-18T06:53:15.231Z,97902.32
2023-05-18T06:55:43.831Z,97896.54
2023-05-18T06:58:13.717Z,97896.16
2023-05-18T07:00:43.529Z,97894.46
2023-05-18T07:03:13.912Z,97892.77
2023-05-18T07:05:43.470Z,97895.74
2023-05-18T07:08:12.206Z,97901.59
2023-05-18T07:10:41.556Z,97902.62
2023-05-18T07:13:10.667Z,97906.88
2023-05-18T07:15:40.129Z,97907.76
2023-05-18T07:18:09.366Z,97901.36
2023-05-18T07:20:41.365Z,97893.90
2023-05-18T07:23:09.961Z,97891.01
2023-05-18T07:25:39.264Z,97889.34
2023-05-18T07:28:08.071Z,97888.83
2023-05-18T07:30:37.200Z,97886.52
2023-05-18T07:33:08.021Z,97888.60
2023-05-18T07:35:39.992Z,97889.19
2023-05-18T07:38:08.788Z,97889.36
2023-05-18T07:40:38.137Z,97888.96
2023-05-18T07:43:06.860Z,97886.98
2023-05-18T07:45:35.505Z,97887.48
2023-05-18T07:48:04.337Z,97889.48
2023-05-18T07:50:35.702Z,97895.88
2023-05-18T07:53:05.793Z,97895.69
2023-05-18T07:55:34.584Z,97895.19
2023-05-18T07:58:03.342Z,97898.52
2023-05-18T08:00:32.187Z,97900.58
2023-05-18T08:03:01.502Z,97906.80
2023-05-18T08:05:30.627Z,97911.17
2023-05-18T08:07:59.649Z,97911.63
2023-05-18T08:10:28.978Z,97912.58
2023-05-18T08:12:58.429Z,97913.80
2023-05-18T08:15:27.956Z,97917.76
2023-05-18T08:17:57.382Z,97915.08
2023-05-18T08:20:30.274Z,97915.53
2023-05-18T08:22:58.890Z,97912.77
2023-05-18T08:25:27.562Z,97918.95
2023-05-18T08:27:56.857Z,97916.68
2023-05-18T08:30:27.067Z,97913.14
2023-05-18T08:32:56.700Z,97916.41
2023-05-18T08:35:27.790Z,97917.02
2023-05-18T08:37:56.669Z,97917.45
2023-05-18T08:40:42.987Z,97918.05
2023-05-18T08:43:30.158Z,97918.47
2023-05-18T08:46:18.332Z,97917.45
2023-05-18T08:48:48.134Z,97922.09
2023-05-18T08:51:20.829Z,97923.69
2023-05-18T08:53:54.256Z,97925.90
2023-05-18T08:56:25.779Z,97927.61
2023-05-18T08:58:58.154Z,97926.90
2023-05-18T09:01:31.508Z,97918.00
2023-05-18T09:04:02.412Z,97917.11
2023-05-18T09:06:34.159Z,97912.13
2023-05-18T09:09:06.801Z,97911.78
2023-05-18T09:11:36.206Z,97915.39
2023-05-18T09:14:05.227Z,97917.73
2023-05-18T09:16:35.176Z,97916.00
2023-05-18T09:19:04.056Z,97918.88
2023-05-18T09:21:33.258Z,97920.09
2023-05-18T09:24:02.383Z,97917.34
2023-05-18T09:26:31.229Z,97912.67
2023-05-18T09:29:00.214Z,97909.48
2023-05-18T09:31:31.214Z,97908.52
2023-05-18T09:34:01.758Z,97906.14
2023-05-18T09:36:32.621Z,97906.61
2023-05-18T09:39:07.272Z,97907.43
2023-05-18T09:41:39.593Z,97905.23
2023-05-18T09:44:12.840Z,97903.30
2023-05-18T09:46:42.514Z,97900.89
2023-05-18T09:49:11.059Z,97902.89
2023-05-18T09:51:39.923Z,97903.88
2023-05-18T09:54:10.602Z,97904.09
2023-05-18T09:56:39.563Z,97904.59
2023-05-18T09:59:13.508Z,97905.09
2023-05-18T10:02:13.667Z,97907.22
2023-05-18T10:04:43.816Z,97909.65
2023-05-18T10:07:13.498Z,97911.27
2023-05-18T10:09:43.844Z,97913.52
2023-05-18T10:12:17.755Z,97913.74
2023-05-18T10:14:46.771Z,97915.63
2023-05-18T10:17:17.666Z,97918.97
2023-05-18T10:19:49.304Z,97921.16
2023-05-18T10:22:21.134Z,97918.98
2023-05-18T10:24:51.970Z,97914.65
2023-05-18T10:27:27.409Z,97913.01
2023-05-18T10:29:59.468Z,97902.05
2023-05-18T10:32:30.551Z,97902.63
2023-05-18T10:35:00.601Z,97898.75
2023-05-18T10:37:32.748Z,97903.48
2023-05-18T10:40:04.137Z,97896.59
2023-05-18T10:42:33.554Z,97895.74
2023-05-18T10:45:03.365Z,97900.05
2023-05-18T10:47:36.302Z,97898.98
2023-05-18T10:50:06.140Z,97896.40
2023-05-18T10:52:38.207Z,97897.48
2023-05-18T10:55:10.372Z,97888.38
2023-05-18T10:58:01.174Z,97887.06
2023-05-18T11:00:34.832Z,97884.95
2023-05-18T11:03:15.989Z,97881.87
2023-05-18T11:05:50.169Z,97883.64
2023-05-18T11:08:29.427Z,97882.81
2023-05-18T11:11:08.117Z,97884.09
2023-05-18T11:13:39.228Z,97884.70
2023-05-18T11:16:09.237Z,97884.16
2023-05-18T11:18:47.004Z,97882.51
2023-05-18T11:21:24.882Z,97884.14
2023-05-18T11:24:31.875Z,97886.02
2023-05-18T11:27:09.471Z,97886.52
2023-05-18T11:29:42.516Z,97889.80
2023-05-18T11:32:30.574Z,97885.88
2023-05-18T11:35:00.222Z,97883.54
2023-05-18T11:37:45.172Z,97885.36
2023-05-18T11:40:51.460Z,97884.67
2023-05-18T11:43:25.111Z,97882.98
2023-05-18T11:45:59.692Z,97884.84
2023-05-18T11:48:32.480Z,97878.58
2023-05-18T11:51:01.941Z,97879.02
2023-05-18T11:53:31.670Z,97884.02
2023-05-18T11:56:00.374Z,97883.53
2023-05-18T11:58:30.821Z,97883.39
2023-05-18T12:01:01.704Z,97881.86
2023-05-18T12:03:31.976Z,97879.95
2023-05-18T12:06:05.444Z,97877.23
2023-05-18T12:08:34.216Z,97876.48
2023-05-18T12:11:03.415Z,97873.16
2023-05-18T12:13:32.261Z,97867.86
2023-05-18T12:16:01.964Z,97874.42
2023-05-18T12:18:35.394Z,97877.45
2023-05-18T12:21:07.263Z,97875.36
2023-05-18T12:23:39.749Z,97877.48
2023-05-18T12:26:08.333Z,97880.38
2023-05-18T12:28:37.008Z,97876.19
2023-05-18T12:31:08.758Z,97874.66
2023-05-18T12:33:37.531Z,97877.29
2023-05-18T12:36:12.071Z,97880.15
2023-05-18T12:38:41.515Z,97882.63
2023-05-18T12:41:10.234Z,97878.71
2023-05-18T12:43:38.992Z,97878.83
2023-05-18T12:46:07.684Z,97877.02
2023-05-18T12:48:38.052Z,97873.84
2023-05-18T12:51:18.011Z,97875.42
2023-05-18T12:53:50.276Z,97878.92
2023-05-18T12:56:18.955Z,97883.35
2023-05-18T12:59:04.560Z,97882.85
2023-05-18T13:01:44.139Z,97879.39
2023-05-18T13:04:13.365Z,97877.73
2023-05-18T13:06:42.737Z,97880.10
2023-05-18T13:09:15.839Z,97878.48
2023-05-18T13:12:00.232Z,97875.19
2023-05-18T13:14:38.990Z,97879.15
2023-05-18T13:17:07.759Z,97879.77
2023-05-18T13:19:39.535Z,97883.46
2023-05-18T13:22:08.567Z,97883.29
2023-05-18T13:24:37.439Z,97879.52
2023-05-18T13:27:06.212Z,97880.88
2023-05-18T13:29:35.053Z,97880.42
2023-05-18T13:32:06.283Z,97873.45
2023-05-18T13:34:34.998Z,97872.00
2023-05-18T13:37:03.739Z,97874.48
2023-05-18T13:39:32.323Z,97876.59
2023-05-18T13:42:03.175Z,97872.58
2023-05-18T13:44:34.136Z,97875.29
2023-05-18T13:47:03.056Z,97878.13
2023-05-18T13:49:32.004Z,97877.98
2023-05-18T13:52:01.130Z,97876.73
2023-05-18T13:54:30.865Z,97880.57
2023-05-18T13:56:59.614Z,97884.69
2023-05-18T13:59:28.236Z,97879.39
2023-05-18T14:01:56.893Z,97873.25
2023-05-18T14:04:25.544Z,97872.55
2023-05-18T14:06:56.126Z,97870.31
2023-05-18T14:09:28.418Z,97872.37
2023-05-18T14:11:58.242Z,97879.88
2023-05-18T14:14:26.966Z,97879.40
2023-05-18T14:16:55.709Z,97876.28
2023-05-18T14:19:24.761Z,97877.11
2023-05-18T14:21:53.956Z,97880.31
2023-05-18T14:24:23.502Z,97881.92
2023-05-18T14:26:53.549Z,97882.40
2023-05-18T14:29:22.294Z,97890.71
2023-05-18T14:31:51.352Z,97887.15
2023-05-18T14:34:19.913Z,97881.95
2023-05-18T14:36:48.490Z,97881.71
2023-05-18T14:39:17.156Z,97887.59
2023-05-18T14:41:46.104Z,97892.54
2023-05-18T14:44:14.794Z,97893.19
2023-05-18T14:46:44.107Z,97891.52
2023-05-18T14:49:12.776Z,97892.69
2023-05-18T14:51:41.535Z,97891.94
2023-05-18T14:54:11.181Z,97892.77
2023-05-18T14:56:40.211Z,97893.52
2023-05-18T14:59:08.814Z,97892.70
2023-05-18T15:01:37.681Z,97897.21
2023-05-18T15:04:06.605Z,97900.14
2023-05-18T15:06:37.684Z,97898.98
2023-05-18T15:09:06.706Z,97898.85
2023-05-18T15:11:35.427Z,97895.00
2023-05-18T15:14:04.359Z,97895.91
2023-05-18T15:16:32.973Z,97898.45
2023-05-18T15:19:01.712Z,97904.34
2023-05-18T15:21:30.353Z,97908.08
2023-05-18T15:23:59.047Z,97908.40
2023-05-18T15:26:27.843Z,97908.20
2023-05-18T15:28:56.725Z,97912.80
2023-05-18T15:31:25.782Z,97912.22
2023-05-18T15:33:54.479Z,97909.86
2023-05-18T15:36:24.513Z,97904.88
2023-05-18T15:38:53.917Z,97906.55
2023-05-18T15:41:22.464Z,97910.15
2023-05-18T15:43:51.369Z,97917.20
2023-05-18T15:46:20.180Z,97916.79
2023-05-18T15:48:48.773Z,97921.29
2023-05-18T15:51:17.495Z,97927.17
2023-05-18T15:53:46.121Z,97928.56
2023-05-18T15:56:15.426Z,97924.27
2023-05-18T15:58:44.021Z,97928.56
2023-05-18T16:01:12.751Z,97929.62
2023-05-18T16:03:41.668Z,97929.66
2023-05-18T16:06:10.561Z,97933.69
2023-05-18T16:08:39.114Z,97930.27
2023-05-18T16:11:07.594Z,97932.02
2023-05-18T16:13:36.255Z,97936.50
2023-05-18T16:16:05.033Z,97941.20
2023-05-18T16:18:33.657Z,97945.80
2023-05-18T16:21:02.449Z,97947.45
2023-05-18T16:23:31.060Z,97948.65
2023-05-18T16:26:00.510Z,97951.26
2023-05-18T16:28:29.517Z,97953.08
2023-05-18T16:31:03.764Z,97955.78
2023-05-18T16:33:32.368Z,97952.59
2023-05-18T16:36:01.959Z,97954.45
2023-05-18T16:38:31.718Z,97954.67
2023-05-18T16:41:00.264Z,97953.43
2023-05-18T16:43:29.264Z,97949.81
2023-05-18T16:45:58.760Z,97952.44
2023-05-18T16:48:27.887Z,97953.11
2023-05-18T16:50:56.471Z,97957.63
2023-05-18T16:53:25.029Z,97958.27
2023-05-18T16:55:53.773Z,97959.10
2023-05-18T16:58:22.405Z,97959.96
2023-05-18T17:00:50.960Z,97959.11
2023-05-18T17:03:20.110Z,97966.48
2023-05-18T17:05:49.151Z,97969.36
2023-05-18T17:08:17.816Z,97970.89
2023-05-18T17:10:46.559Z,97981.62
2023-05-18T17:13:15.100Z,97984.81
2023-05-18T17:15:44.250Z,97989.29
2023-05-18T17:18:23.800Z,97990.41
2023-05-18T17:21:09.814Z,97989.28
2023-05-18T17:23:39.097Z,97992.94
2023-05-18T17:26:07.867Z,97995.05
2023-05-18T17:28:36.942Z,97994.95
2023-05-18T17:31:14.826Z,97997.08
2023-05-18T17:34:03.194Z,97998.66
2023-05-18T17:36:32.579Z,97998.61
2023-05-18T17:39:01.607Z,98001.77
2023-05-18T17:41:30.742Z,98001.38
2023-05-18T17:43:59.502Z,98002.44
2023-05-18T17:46:28.889Z,98004.78
2023-05-18T17:48:57.853Z,98003.89
2023-05-18T17:51:27.109Z,98004.29
2023-05-18T17:53:56.869Z,98004.70
2023-05-18T17:56:27.816Z,98006.50
2023-05-18T17:58:59.009Z,98011.27
2023-05-18T18:01:29.136Z,98012.34
2023-05-18T18:03:58.694Z,98015.95
2023-05-18T18:06:28.530Z,98015.21
2023-05-18T18:08:59.093Z,98017.91
2023-05-18T18:11:29.317Z,98023.03
2023-05-18T18:13:58.369Z,98025.85
2023-05-18T18:16:27.524Z,98030.36
2023-05-18T18:18:59.798Z,98036.18
2023-05-18T18:21:37.650Z,98044.65
2023-05-18T18:24:06.546Z,98046.20
2023-05-18T18:26:40.798Z,98050.67
2023-05-18T18:29:16.871Z,98059.64
2023-05-18T18:31:45.815Z,98061.33
2023-05-18T18:34:16.338Z,98062.89
2023-05-18T18:36:48.122Z,98063.77
2023-05-18T18:39:21.565Z,98063.45
2023-05-18T18:41:53.482Z,98064.15
2023-05-18T18:44:31.662Z,98063.03
2023-05-18T18:47:00.793Z,98063.44
2023-05-18T18:49:29.759Z,98067.44
2023-05-18T18:51:59.245Z,98073.08
2023-05-18T18:54:28.046Z,98073.40
2023-05-18T18:56:56.924Z,98078.02
2023-05-18T18:59:25.615Z,98079.36
2023-05-18T19:01:54.330Z,98079.89
2023-05-18T19:04:23.350Z,98081.75
2023-05-18T19:06:56.143Z,98084.77
2023-05-18T19:09:24.970Z,98088.14
2023-05-18T19:11:53.746Z,98093.08
2023-05-18T19:14:22.553Z,98093.52
2023-05-18T19:16:51.163Z,98093.73
2023-05-18T19:19:20.480Z,98096.27
2023-05-18T19:21:49.376Z,98101.85
2023-05-18T19:24:18.098Z,98103.43
2023-05-18T19:26:46.804Z,98106.25
2023-05-18T19:29:15.569Z,98108.59
2023-05-18T19:31:44.330Z,98111.20
2023-05-18T19:34:14.402Z,98114.89
2023-05-18T19:36:46.136Z,98120.19
2023-05-18T19:39:18.515Z,98117.45
2023-05-18T19:41:47.349Z,98116.00
2023-05-18T19:44:15.974Z,98118.61
2023-05-18T19:46:44.558Z,98119.17
2023-05-18T19:49:13.249Z,98119.85
2023-05-18T19:51:41.929Z,98117.87
2023-05-18T19:54:10.752Z,98115.20
2023-05-18T19:56:39.320Z,98118.55
2023-05-18T19:59:08.197Z,98120.23
2023-05-18T20:01:36.905Z,98124.09
2023-05-18T20:04:05.933Z,98130.52
2023-05-18T20:06:34.559Z,98133.92
2023-05-18T20:09:03.239Z,98134.57
2023-05-18T20:11:32.024Z,98133.31
2023-05-18T20:14:01.746Z,98133.08
2023-05-18T20:16:34.190Z,98131.19
2023-05-18T20:19:05.228Z,98134.77
2023-05-18T20:21:34.810Z,98141.70
2023-05-18T20:24:03.459Z,98142.56
2023-05-18T20:26:32.350Z,98142.98
2023-05-18T20:29:01.124Z,98142.98
2023-05-18T20:31:29.863Z,98136.90
2023-05-18T20:33:58.533Z,98136.76
2023-05-18T20:36:27.293Z,98140.35
2023-05-18T20:38:58.318Z,98144.54
2023-05-18T20:41:28.552Z,98147.35
2023-05-18T20:43:57.737Z,98146.76
2023-05-18T20:46:28.019Z,98145.73
2023-05-18T20:48:57.076Z,98147.89
2023-05-18T20:51:26.170Z,98149.57
2023-05-18T20:53:54.897Z,98150.98
2023-05-18T20:56:24.140Z,98150.72
2023-05-18T20:58:54.256Z,98153.75
2023-05-18T21:01:24.421Z,98153.77
2023-05-18T21:03:53.126Z,98153.86
2023-05-18T21:06:21.951Z,98154.91
2023-05-18T21:08:50.963Z,98156.24
2023-05-18T21:11:19.837Z,98156.58
2023-05-18T21:13:48.557Z,98156.30
2023-05-18T21:16:17.317Z,98157.36
2023-05-18T21:18:46.461Z,98157.42
2023-05-18T21:21:15.627Z,98156.15
2023-05-18T21:23:45.024Z,98163.46
2023-05-18T21:26:14.067Z,98164.40
2023-05-18T21:28:43.032Z,98164.17
2023-05-18T21:31:12.236Z,98165.14
2023-05-18T21:33:42.458Z,98166.09
2023-05-18T21:36:11.936Z,98166.64
2023-05-18T21:38:40.937Z,98166.36
2023-05-18T21:41:27.324Z,98166.23
2023-05-18T21:43:59.510Z,98167.09
2023-05-18T21:46:29.300Z,98163.75
2023-05-18T21:48:58.917Z,98165.16
2023-05-18T21:51:29.146Z,98165.46
2023-05-18T21:53:59.177Z,98167.11
2023-05-18T21:56:30.049Z,98170.39
2023-05-18T21:58:59.382Z,98174.58
2023-05-18T22:01:28.055Z,98171.35
2023-05-18T22:03:56.874Z,98172.92
2023-05-18T22:06:29.567Z,98173.42
2023-05-18T22:08:58.125Z,98171.57
2023-05-18T22:11:26.736Z,98172.28
2023-05-18T22:13:55.601Z,98168.81
2023-05-18T22:16:24.422Z,98169.71
2023-05-18T22:18:53.527Z,98171.96
2023-05-18T22:21:22.478Z,98166.48
2023-05-18T22:23:54.640Z,98166.56
2023-05-18T22:26:23.444Z,98168.13
2023-05-18T22:28:52.121Z,98165.33
2023-05-18T22:31:21.000Z,98163.63
2023-05-18T22:33:54.205Z,98164.98
2023-05-18T22:36:28.609Z,98164.63
2023-05-18T22:38:57.873Z,98165.77
2023-05-18T22:41:27.289Z,98161.51
2023-05-18T22:43:56.105Z,98164.96
2023-05-18T22:46:24.751Z,98162.36
2023-05-18T22:48:53.982Z,98163.38
2023-05-18T22:51:23.673Z,98168.23
2023-05-18T22:53:52.346Z,98169.45
2023-05-18T22:56:22.546Z,98169.27
2023-05-18T22:58:54.153Z,98169.72
2023-05-18T23:01:22.588Z,98167.63
2023-05-18T23:03:51.649Z,98165.99
2023-05-18T23:06:22.328Z,98160.25
2023-05-18T23:08:50.884Z,98159.96
2023-05-18T23:11:20.083Z,98156.94
2023-05-18T23:13:49.210Z,98156.69
2023-05-18T23:16:18.680Z,98157.81
2023-05-18T23:18:49.038Z,98164.73
2023-05-18T23:21:17.546Z,98163.66
2023-05-18T23:24:53.597Z,98165.30
2023-05-18T23:27:39.973Z,98166.09
2023-05-18T23:30:09.013Z,98163.15
2023-05-18T23:32:38.157Z,98153.61
2023-05-18T23:35:07.378Z,98152.11
2023-05-18T23:37:41.469Z,98155.00
2023-05-18T23:40:13.841Z,98156.29
2023-05-18T23:42:42.811Z,98156.38
2023-05-18T23:45:12.473Z,98151.82
2023-05-18T23:47:41.490Z,98152.23
2023-05-18T23:50:10.614Z,98151.82
2023-05-18T23:52:41.628Z,98156.41
2023-05-18T23:55:11.585Z,98158.81
2023-05-18T23:57:40.365Z,98159.30
